Terminal Aerodrome Forecast
Issued by NWS

Home | Current Version | Previous Version | Text Only | Print | Product List | Glossary On
Versions: 1 2 3 4 5 6 7 8 9 10 11 12 13 14 15 16 17 18 19 20 21 22 23
000
FTUS43 KGLD 221130
TAFMCK
TAF
KMCK 221130Z 2212/2312 19008KT P6SM OVC150
     FM221500 21008KT P6SM VCSH BKN040 OVC100
     FM221900 36008KT P6SM VCTS BKN060CB BKN120
     FM222200 VRB05KT P6SM SCT150
     FM230900 VRB05KT 2SM BR SCT003=

USA.gov is the U.S. government's official web portal to all federal, state and local government web resources and services.